createdAt,value
2022-07-31T00:00:22.697Z,3.20
2022-07-31T00:02:49.963Z,6.78
2022-07-31T00:05:17.319Z,8.50
2022-07-31T00:07:44.518Z,13.45
2022-07-31T00:10:11.690Z,7.20
2022-07-31T00:12:38.796Z,5.32
2022-07-31T00:15:06.988Z,5.45
2022-07-31T00:17:34.407Z,3.63
2022-07-31T00:20:01.985Z,4.15
2022-07-31T00:22:29.151Z,4.80
2022-07-31T00:24:56.423Z,5.50
2022-07-31T00:27:23.859Z,5.53
2022-07-31T00:29:51.188Z,4.32
2022-07-31T00:32:18.352Z,2.97
2022-07-31T00:34:45.510Z,5.30
2022-07-31T00:37:12.688Z,4.43
2022-07-31T00:39:39.871Z,5.00
2022-07-31T00:42:07.153Z,6.00
2022-07-31T00:44:34.292Z,4.45
2022-07-31T00:47:07.527Z,3.92
2022-07-31T00:49:37.346Z,4.95
2022-07-31T00:52:05.368Z,6.00
2022-07-31T00:54:32.640Z,4.20
2022-07-31T00:56:59.923Z,3.55
2022-07-31T00:59:28.426Z,5.82
2022-07-31T01:01:55.705Z,4.28
2022-07-31T01:04:22.867Z,4.53
2022-07-31T01:06:50.021Z,4.68
2022-07-31T01:09:17.183Z,4.20
2022-07-31T01:11:50.606Z,5.00
2022-07-31T01:14:20.443Z,5.53
2022-07-31T01:16:49.171Z,4.35
2022-07-31T01:19:22.514Z,4.47
2022-07-31T01:21:56.142Z,5.03
2022-07-31T01:24:38.568Z,5.68
2022-07-31T01:27:11.618Z,6.47
2022-07-31T01:29:42.900Z,3.97
2022-07-31T01:32:15.696Z,3.45
2022-07-31T01:35:01.383Z,7.22
2022-07-31T01:37:30.814Z,6.07
2022-07-31T01:40:06.473Z,5.88
2022-07-31T01:42:35.435Z,4.68
2022-07-31T01:45:03.783Z,7.22
2022-07-31T01:47:32.425Z,5.95
2022-07-31T01:50:00.854Z,6.22
2022-07-31T01:52:29.962Z,8.18
2022-07-31T01:54:58.618Z,6.88
2022-07-31T01:57:26.977Z,7.13
2022-07-31T01:59:55.204Z,6.38
2022-07-31T02:02:22.612Z,6.78
2022-07-31T02:04:53.294Z,5.93
2022-07-31T02:07:20.830Z,8.30
2022-07-31T02:09:52.425Z,6.88
2022-07-31T02:12:32.185Z,10.32
2022-07-31T02:15:01.533Z,9.80
2022-07-31T02:17:28.903Z,10.68
2022-07-31T02:20:00.159Z,6.53
2022-07-31T02:22:28.311Z,8.75
2022-07-31T02:24:55.490Z,9.60
2022-07-31T02:27:53.627Z,9.68
2022-07-31T02:30:11.759Z,9.23
2022-07-31T02:32:39.702Z,9.00
2022-07-31T02:35:08.442Z,8.30
2022-07-31T02:37:36.883Z,10.98
2022-07-31T02:40:04.979Z,10.82
2022-07-31T02:42:32.257Z,7.72
2022-07-31T02:44:59.650Z,6.65
2022-07-31T02:47:26.828Z,8.90
2022-07-31T02:49:55.867Z,8.07
2022-07-31T02:52:23.414Z,10.07
2022-07-31T02:54:51.447Z,9.38
2022-07-31T02:57:18.589Z,11.40
2022-07-31T02:59:45.711Z,12.27
2022-07-31T03:02:13.189Z,8.30
2022-07-31T03:04:40.347Z,10.25
2022-07-31T03:07:07.587Z,8.80
2022-07-31T03:09:34.711Z,8.07
2022-07-31T03:12:02.203Z,11.07
2022-07-31T03:14:33.038Z,10.45
2022-07-31T03:17:00.792Z,8.75
2022-07-31T03:19:29.139Z,11.55
2022-07-31T03:21:56.428Z,8.50
2022-07-31T03:24:23.661Z,11.75
2022-07-31T03:26:50.963Z,7.53
2022-07-31T03:29:39.005Z,7.65
2022-07-31T03:32:06.706Z,12.82
2022-07-31T03:34:34.220Z,7.70
2022-07-31T03:37:01.413Z,9.20
2022-07-31T03:39:28.546Z,8.13
2022-07-31T03:41:56.585Z,7.57
2022-07-31T03:44:23.803Z,5.65
2022-07-31T03:46:51.255Z,6.53
2022-07-31T03:49:18.645Z,14.48
2022-07-31T03:51:45.821Z,7.82
2022-07-31T03:54:13.098Z,4.35
2022-07-31T03:56:41.727Z,5.55
2022-07-31T03:59:12.743Z,6.75
2022-07-31T04:01:58.285Z,7.43
2022-07-31T04:04:26.019Z,13.95
2022-07-31T04:06:53.350Z,10.18
2022-07-31T04:09:20.510Z,21.30
2022-07-31T04:11:47.698Z,13.82
2022-07-31T04:14:14.950Z,14.65
2022-07-31T04:16:42.173Z,8.98
2022-07-31T04:19:09.318Z,16.80
2022-07-31T04:21:36.460Z,11.00
2022-07-31T04:24:03.685Z,12.80
2022-07-31T04:26:30.842Z,22.67
2022-07-31T04:28:58.061Z,7.40
2022-07-31T04:31:25.234Z,8.07
2022-07-31T04:33:56.359Z,11.50
2022-07-31T04:36:30.038Z,6.30
2022-07-31T04:38:58.329Z,8.43
2022-07-31T04:41:25.474Z,5.88
2022-07-31T04:43:52.764Z,6.13
2022-07-31T04:46:20.258Z,7.82
2022-07-31T04:48:49.224Z,4.60
2022-07-31T04:51:17.885Z,4.05
2022-07-31T04:53:45.588Z,7.10
2022-07-31T04:56:42.380Z,6.90
2022-07-31T04:59:14.673Z,6.15
2022-07-31T05:01:43.407Z,5.75
2022-07-31T05:04:11.010Z,5.88
2022-07-31T05:06:39.510Z,7.68
2022-07-31T05:09:09.488Z,7.68
2022-07-31T05:11:37.522Z,7.57
2022-07-31T05:14:05.781Z,6.43
2022-07-31T05:16:33.139Z,4.78
2022-07-31T05:19:00.770Z,6.22
2022-07-31T05:21:28.294Z,8.02
2022-07-31T05:23:55.604Z,6.55
2022-07-31T05:26:23.246Z,6.03
2022-07-31T05:28:56.429Z,5.63
2022-07-31T05:31:25.439Z,6.10
2022-07-31T05:33:52.575Z,4.28
2022-07-31T05:36:19.746Z,9.05
2022-07-31T05:38:47.324Z,4.22
2022-07-31T05:41:14.737Z,4.63
2022-07-31T05:43:42.187Z,6.55
2022-07-31T05:46:09.635Z,8.25
2022-07-31T05:48:36.775Z,7.20
2022-07-31T05:51:05.726Z,5.95
2022-07-31T05:53:33.151Z,7.13
2022-07-31T05:56:00.438Z,6.20
2022-07-31T05:58:27.578Z,4.45
2022-07-31T06:00:54.696Z,5.38
2022-07-31T06:03:27.766Z,10.40
2022-07-31T06:05:55.632Z,6.47
2022-07-31T06:08:23.172Z,5.80
2022-07-31T06:10:50.407Z,5.82
2022-07-31T06:13:19.034Z,5.28
2022-07-31T06:15:49.500Z,7.75
2022-07-31T06:18:16.892Z,6.38
2022-07-31T06:20:44.079Z,5.20
2022-07-31T06:23:19.988Z,4.90
2022-07-31T06:25:50.508Z,7.65
2022-07-31T06:28:17.638Z,7.90
2022-07-31T06:30:44.815Z,6.50
2022-07-31T06:33:16.632Z,6.18
2022-07-31T06:35:59.297Z,4.80
2022-07-31T06:38:26.540Z,5.88
2022-07-31T06:40:54.312Z,7.47
2022-07-31T06:43:21.491Z,6.82
2022-07-31T06:45:51.625Z,6.25
2022-07-31T06:48:19.732Z,7.38
2022-07-31T06:50:48.443Z,5.72
2022-07-31T06:55:46.676Z,6.90
2022-07-31T06:58:13.822Z,7.22
2022-07-31T07:00:40.983Z,5.95
2022-07-31T07:03:08.086Z,7.63
2022-07-31T07:05:35.652Z,7.20
2022-07-31T07:08:03.029Z,6.43
2022-07-31T07:10:30.207Z,6.72
2022-07-31T07:12:57.362Z,8.45
2022-07-31T07:15:24.503Z,5.57
2022-07-31T07:17:51.748Z,5.88
2022-07-31T07:20:19.012Z,8.00
2022-07-31T07:22:46.196Z,4.47
2022-07-31T07:25:13.504Z,11.18
2022-07-31T07:27:40.652Z,4.43
2022-07-31T07:30:08.128Z,6.35
2022-07-31T07:32:35.301Z,4.43
2022-07-31T07:35:04.281Z,6.05
2022-07-31T07:37:31.418Z,4.95
2022-07-31T07:40:06.633Z,5.05
2022-07-31T07:42:33.789Z,8.23
2022-07-31T07:45:00.935Z,8.80
2022-07-31T07:48:05.151Z,9.98
2022-07-31T07:50:21.153Z,5.07
2022-07-31T07:52:48.319Z,6.00
2022-07-31T07:55:15.535Z,4.20
2022-07-31T07:57:44.854Z,6.25
2022-07-31T08:00:12.823Z,5.93
2022-07-31T08:02:41.208Z,5.30
2022-07-31T08:05:08.462Z,5.65
2022-07-31T08:07:41.867Z,4.95
2022-07-31T08:10:10.169Z,4.95
2022-07-31T08:12:37.873Z,6.07
2022-07-31T08:15:05.660Z,6.32
2022-07-31T08:17:32.838Z,5.97
2022-07-31T08:19:59.970Z,4.72
2022-07-31T08:22:27.186Z,4.78
2022-07-31T08:24:54.399Z,5.57
2022-07-31T08:27:39.709Z,6.60
2022-07-31T08:30:07.544Z,5.28
2022-07-31T08:32:34.909Z,5.88
2022-07-31T08:35:02.223Z,6.72
2022-07-31T08:37:57.591Z,4.82
2022-07-31T08:40:18.791Z,10.45
2022-07-31T08:42:46.949Z,8.00
2022-07-31T08:45:15.036Z,3.67
2022-07-31T08:47:42.852Z,7.13
2022-07-31T08:50:13.984Z,3.28
2022-07-31T08:52:43.546Z,6.15
2022-07-31T08:55:11.402Z,4.97
2022-07-31T08:57:58.730Z,5.75
2022-07-31T09:00:26.189Z,3.53
2022-07-31T09:02:54.992Z,5.30
2022-07-31T09:05:22.640Z,6.00
2022-07-31T09:07:49.791Z,3.38
2022-07-31T09:10:27.855Z,5.78
2022-07-31T09:12:55.836Z,5.68
2022-07-31T09:15:24.213Z,4.65
2022-07-31T09:17:53.850Z,5.35
2022-07-31T09:20:22.744Z,4.65
2022-07-31T09:22:53.824Z,6.25
2022-07-31T09:25:21.046Z,4.55
2022-07-31T09:27:48.813Z,4.70
2022-07-31T09:30:16.240Z,4.43
2022-07-31T09:32:43.785Z,2.85
2022-07-31T09:35:12.151Z,2.72
2022-07-31T09:37:40.139Z,4.40
2022-07-31T09:40:09.307Z,3.22
2022-07-31T09:42:46.085Z,4.35
2022-07-31T09:45:21.955Z,4.93
2022-07-31T09:48:03.027Z,4.80
2022-07-31T09:50:30.235Z,3.35
2022-07-31T09:53:01.209Z,5.03
2022-07-31T09:55:29.071Z,3.88
2022-07-31T09:57:57.583Z,3.65
2022-07-31T10:00:25.536Z,3.00
2022-07-31T10:02:56.183Z,4.45
2022-07-31T10:05:27.944Z,4.03
2022-07-31T10:07:58.129Z,2.38
2022-07-31T10:10:25.602Z,3.67
2022-07-31T10:12:54.787Z,2.38
2022-07-31T10:15:23.818Z,4.50
2022-07-31T10:17:52.325Z,3.28
2022-07-31T10:20:21.973Z,3.15
2022-07-31T10:22:57.540Z,3.67
2022-07-31T10:25:35.969Z,2.85
2022-07-31T10:28:04.009Z,4.78
2022-07-31T10:30:31.260Z,3.03
2022-07-31T10:32:59.156Z,4.15
2022-07-31T10:35:26.767Z,4.10
2022-07-31T10:37:56.987Z,3.72
2022-07-31T10:40:27.658Z,4.65
2022-07-31T10:43:13.661Z,5.07
2022-07-31T10:45:51.427Z,3.03
2022-07-31T10:48:18.851Z,2.40
2022-07-31T10:50:46.449Z,3.47
2022-07-31T10:53:15.442Z,2.95
2022-07-31T10:55:43.078Z,5.68
2022-07-31T10:58:14.117Z,4.22
2022-07-31T11:00:41.268Z,4.80
2022-07-31T11:03:21.475Z,4.50
2022-07-31T11:06:02.497Z,2.97
2022-07-31T11:08:40.650Z,3.43
2022-07-31T11:11:07.826Z,5.72
2022-07-31T11:13:45.580Z,6.40
2022-07-31T11:16:12.844Z,2.90
2022-07-31T11:18:40.003Z,3.33
2022-07-31T11:21:38.028Z,3.67
2022-07-31T11:24:03.015Z,2.70
2022-07-31T11:26:41.712Z,3.88
2022-07-31T11:30:00.935Z,3.08
2022-07-31T11:32:00.977Z,4.10
2022-07-31T11:34:28.224Z,4.72
2022-07-31T11:36:55.516Z,5.10
2022-07-31T11:39:31.417Z,6.05
2022-07-31T11:42:04.767Z,3.00
2022-07-31T11:44:34.721Z,5.35
2022-07-31T11:47:02.339Z,2.47
2022-07-31T11:49:39.088Z,1.88
2022-07-31T11:52:31.293Z,3.55
2022-07-31T11:55:09.824Z,2.95
2022-07-31T11:57:51.872Z,3.72
2022-07-31T12:00:26.154Z,4.95
2022-07-31T12:02:57.319Z,5.05
2022-07-31T12:05:38.863Z,3.60
2022-07-31T12:08:07.505Z,1.50
2022-07-31T12:10:34.841Z,3.08
2022-07-31T12:13:03.006Z,5.00
2022-07-31T12:15:30.153Z,3.35
2022-07-31T12:18:01.775Z,8.00
2022-07-31T12:20:35.973Z,1.58
2022-07-31T12:23:04.924Z,4.80
2022-07-31T12:25:46.323Z,3.22
2022-07-31T12:28:17.141Z,2.03
2022-07-31T12:30:45.198Z,2.97
2022-07-31T12:33:15.293Z,3.97
2022-07-31T12:35:55.929Z,3.50
2022-07-31T12:38:47.653Z,2.15
2022-07-31T12:41:14.936Z,1.70
2022-07-31T12:43:50.166Z,2.13
2022-07-31T12:46:39.970Z,2.03
2022-07-31T12:49:08.345Z,3.58
2022-07-31T12:51:45.492Z,3.53
2022-07-31T12:54:14.651Z,1.75
2022-07-31T12:56:42.109Z,4.03
2022-07-31T12:59:09.872Z,1.70
2022-07-31T13:01:37.222Z,4.07
2022-07-31T13:04:07.589Z,2.45
2022-07-31T13:06:37.387Z,2.42
2022-07-31T13:09:04.924Z,4.40
2022-07-31T13:11:45.671Z,2.88
2022-07-31T13:14:15.434Z,2.85
2022-07-31T13:16:42.749Z,1.80
2022-07-31T13:19:09.963Z,7.43
2022-07-31T13:21:38.719Z,3.55
2022-07-31T13:24:17.168Z,2.15
2022-07-31T13:26:45.277Z,4.25
2022-07-31T13:29:12.581Z,1.73
2022-07-31T13:31:40.251Z,8.27
2022-07-31T13:34:07.421Z,3.05
2022-07-31T13:36:38.599Z,3.35
2022-07-31T13:41:35.594Z,5.97
2022-07-31T13:44:03.375Z,3.40
2022-07-31T13:46:31.543Z,6.68
2022-07-31T13:48:59.605Z,3.40
2022-07-31T13:51:29.439Z,1.88
2022-07-31T13:53:56.732Z,2.28
2022-07-31T13:56:39.024Z,2.55
2022-07-31T13:59:09.856Z,2.92
2022-07-31T14:02:05.342Z,3.90
2022-07-31T14:04:25.914Z,2.67
2022-07-31T14:06:55.740Z,3.13
2022-07-31T14:09:25.088Z,2.80
2022-07-31T14:11:52.249Z,1.70
2022-07-31T14:14:22.909Z,2.95
2022-07-31T14:16:50.950Z,3.10
2022-07-31T14:19:18.099Z,2.40
2022-07-31T14:21:56.413Z,2.75
2022-07-31T14:24:24.621Z,2.05
2022-07-31T14:26:51.946Z,4.10
2022-07-31T14:29:19.133Z,2.33
2022-07-31T14:31:46.270Z,2.25
2022-07-31T14:34:13.483Z,4.40
2022-07-31T14:36:40.631Z,1.98
2022-07-31T14:39:07.827Z,1.83
2022-07-31T14:41:34.982Z,1.85
2022-07-31T14:44:02.131Z,2.75
2022-07-31T14:46:29.335Z,2.47
2022-07-31T14:48:56.504Z,2.88
2022-07-31T14:51:23.772Z,1.85
2022-07-31T14:53:52.339Z,3.38
2022-07-31T14:56:39.368Z,2.05
2022-07-31T14:59:06.597Z,2.40
2022-07-31T15:01:33.814Z,2.58
2022-07-31T15:04:01.039Z,3.40
2022-07-31T15:06:39.354Z,1.90
2022-07-31T15:09:19.556Z,1.85
2022-07-31T15:12:00.738Z,1.70
2022-07-31T15:14:29.015Z,2.70
2022-07-31T15:16:56.179Z,1.77
2022-07-31T15:19:23.326Z,1.63
2022-07-31T15:22:16.300Z,1.73
2022-07-31T15:24:40.112Z,1.55
2022-07-31T15:27:09.574Z,3.05
2022-07-31T15:30:00.414Z,2.13
2022-07-31T15:32:24.075Z,1.55
2022-07-31T15:34:51.246Z,2.90
2022-07-31T15:37:20.136Z,1.77
2022-07-31T15:40:02.272Z,1.45
2022-07-31T15:42:31.338Z,2.28
2022-07-31T15:44:58.468Z,1.38
2022-07-31T15:47:25.634Z,2.17
2022-07-31T15:49:52.934Z,1.85
2022-07-31T15:52:20.171Z,1.83
2022-07-31T15:54:47.600Z,1.90
2022-07-31T15:59:46.180Z,2.15
2022-07-31T16:02:13.381Z,2.80
2022-07-31T16:04:44.918Z,2.65
2022-07-31T16:08:29.022Z,1.95
2022-07-31T16:10:15.462Z,1.85
2022-07-31T16:12:44.619Z,1.80
2022-07-31T16:15:12.582Z,1.73
2022-07-31T16:17:40.091Z,2.22
2022-07-31T16:20:08.563Z,1.35
2022-07-31T16:22:36.666Z,1.55
2022-07-31T16:25:04.353Z,1.50
2022-07-31T16:27:31.576Z,2.15
2022-07-31T16:30:01.409Z,1.58
2022-07-31T16:32:29.674Z,2.30
2022-07-31T16:35:00.644Z,2.70
2022-07-31T16:37:51.370Z,2.08
2022-07-31T16:40:28.609Z,3.25
2022-07-31T16:45:27.056Z,2.63
2022-07-31T16:47:54.222Z,2.20
2022-07-31T16:50:21.405Z,2.80
2022-07-31T16:52:52.606Z,1.95
2022-07-31T16:55:51.799Z,3.53
2022-07-31T16:58:11.190Z,2.15
2022-07-31T17:00:39.088Z,2.28
2022-07-31T17:03:06.379Z,2.72
2022-07-31T17:05:33.640Z,2.50
2022-07-31T17:08:00.780Z,3.58
2022-07-31T17:10:28.005Z,5.57
2022-07-31T17:12:56.497Z,3.28
2022-07-31T17:15:23.997Z,3.13
2022-07-31T17:17:51.423Z,2.13
2022-07-31T17:20:23.316Z,2.83
2022-07-31T17:22:54.433Z,5.15
2022-07-31T17:25:22.858Z,1.98
2022-07-31T17:27:51.731Z,2.47
2022-07-31T17:30:18.937Z,4.55
2022-07-31T17:32:46.133Z,2.67
2022-07-31T17:35:13.641Z,1.55
2022-07-31T17:37:40.965Z,4.05
2022-07-31T17:40:27.264Z,3.88
2022-07-31T17:42:55.828Z,4.68
2022-07-31T17:45:23.341Z,3.78
2022-07-31T17:48:03.659Z,1.98
2022-07-31T17:50:31.175Z,2.65
2022-07-31T17:52:58.339Z,2.88
2022-07-31T17:55:25.502Z,2.22
2022-07-31T17:57:52.707Z,2.75
2022-07-31T18:00:20.017Z,3.95
2022-07-31T18:02:47.304Z,4.30
2022-07-31T18:05:14.888Z,3.03
2022-07-31T18:07:42.185Z,3.10
2022-07-31T18:10:11.769Z,4.32
2022-07-31T18:12:57.288Z,3.55
2022-07-31T18:15:34.532Z,2.20
2022-07-31T18:18:02.883Z,2.65
2022-07-31T18:20:30.067Z,5.65
2022-07-31T18:22:57.222Z,3.55
2022-07-31T18:25:24.410Z,2.95
2022-07-31T18:27:52.409Z,2.08
2022-07-31T18:30:19.556Z,3.53
2022-07-31T18:32:46.737Z,2.47
2022-07-31T18:35:13.857Z,2.35
2022-07-31T18:37:41.049Z,2.88
2022-07-31T18:40:08.651Z,2.47
2022-07-31T18:42:35.832Z,3.83
2022-07-31T18:45:02.991Z,4.88
2022-07-31T18:47:30.200Z,2.22
2022-07-31T18:51:01.114Z,3.70
2022-07-31T18:52:44.780Z,2.00
2022-07-31T18:55:12.500Z,2.05
2022-07-31T18:57:39.642Z,2.10
2022-07-31T19:00:07.477Z,2.40
2022-07-31T19:02:34.646Z,2.70
2022-07-31T19:05:02.108Z,4.30
2022-07-31T19:07:30.121Z,3.15
2022-07-31T19:10:03.591Z,2.63
2022-07-31T19:12:30.727Z,4.60
2022-07-31T19:14:58.338Z,4.85
2022-07-31T19:17:25.487Z,2.15
2022-07-31T19:20:15.953Z,6.15
2022-07-31T19:22:59.626Z,3.95
2022-07-31T19:25:27.267Z,2.83
2022-07-31T19:27:54.414Z,4.90
2022-07-31T19:30:22.814Z,3.17
2022-07-31T19:32:49.979Z,3.30
2022-07-31T19:35:17.138Z,2.97
2022-07-31T19:37:44.387Z,3.72
2022-07-31T19:40:11.819Z,3.42
2022-07-31T19:42:39.490Z,2.30
2022-07-31T19:45:06.905Z,5.35
2022-07-31T19:47:35.765Z,3.45
2022-07-31T19:50:03.007Z,5.75
2022-07-31T19:52:30.163Z,2.28
2022-07-31T19:54:57.350Z,3.00
2022-07-31T19:57:24.579Z,5.80
2022-07-31T19:59:51.759Z,2.50
2022-07-31T20:02:18.951Z,2.47
2022-07-31T20:04:46.155Z,4.13
2022-07-31T20:07:13.332Z,4.53
2022-07-31T20:09:40.515Z,5.13
2022-07-31T20:12:08.284Z,4.18
2022-07-31T20:14:35.590Z,3.60
2022-07-31T20:17:02.975Z,3.95
2022-07-31T20:19:30.127Z,5.32
2022-07-31T20:21:57.634Z,4.50
2022-07-31T20:24:26.945Z,5.72
2022-07-31T20:26:54.472Z,3.72
2022-07-31T20:29:21.738Z,8.18
2022-07-31T20:31:48.969Z,4.68
2022-07-31T20:34:16.707Z,4.72
2022-07-31T20:36:43.932Z,4.90
2022-07-31T20:39:11.101Z,4.63
2022-07-31T20:41:38.399Z,4.22
2022-07-31T20:44:05.705Z,4.95
2022-07-31T20:46:32.957Z,5.07
2022-07-31T20:49:00.558Z,3.10
2022-07-31T20:51:27.739Z,4.93
2022-07-31T20:53:54.997Z,4.78
2022-07-31T20:56:22.584Z,4.88
2022-07-31T20:58:52.007Z,4.95
2022-07-31T21:01:20.135Z,6.40
2022-07-31T21:03:47.891Z,5.05
2022-07-31T21:06:15.121Z,4.20
2022-07-31T21:08:42.467Z,4.70
2022-07-31T21:11:09.684Z,4.15
2022-07-31T21:13:36.922Z,6.15
2022-07-31T21:16:04.648Z,3.47
2022-07-31T21:18:34.685Z,5.30
2022-07-31T21:21:02.552Z,4.63
2022-07-31T21:23:29.701Z,3.40
2022-07-31T21:25:58.362Z,4.43
2022-07-31T21:28:27.013Z,4.97
2022-07-31T21:30:55.901Z,5.55
2022-07-31T21:33:24.220Z,3.90
2022-07-31T21:35:51.521Z,3.00
2022-07-31T21:38:19.396Z,2.60
2022-07-31T21:40:47.249Z,2.85
2022-07-31T21:43:18.659Z,3.28
2022-07-31T21:45:55.796Z,5.65
2022-07-31T21:48:28.585Z,4.55
2022-07-31T21:50:56.021Z,5.20
2022-07-31T21:53:23.767Z,2.85
2022-07-31T21:55:51.085Z,4.30
2022-07-31T21:58:18.367Z,5.90
2022-07-31T22:00:45.786Z,3.65
2022-07-31T22:03:13.130Z,3.30
2022-07-31T22:05:59.472Z,5.80
2022-07-31T22:08:26.618Z,3.55
2022-07-31T22:10:54.123Z,13.73
2022-07-31T22:13:21.597Z,2.55
2022-07-31T22:15:58.150Z,3.80
2022-07-31T22:18:30.719Z,3.88
2022-07-31T22:20:58.195Z,3.47
2022-07-31T22:23:26.322Z,3.60
2022-07-31T22:25:53.646Z,4.88
2022-07-31T22:28:21.721Z,3.35
2022-07-31T22:30:49.221Z,3.25
2022-07-31T22:33:16.417Z,4.18
2022-07-31T22:35:43.704Z,5.57
2022-07-31T22:38:14.080Z,4.00
2022-07-31T22:40:41.312Z,4.70
2022-07-31T22:44:09.404Z,3.88
2022-07-31T22:46:01.034Z,3.83
2022-07-31T22:48:28.262Z,4.25
2022-07-31T22:50:55.914Z,3.35
2022-07-31T22:53:24.038Z,4.05
2022-07-31T22:55:53.001Z,6.75
2022-07-31T22:58:20.724Z,3.20
2022-07-31T23:00:48.062Z,3.38
2022-07-31T23:03:15.264Z,4.95
2022-07-31T23:06:05.310Z,5.03
2022-07-31T23:08:29.642Z,2.80
2022-07-31T23:10:56.776Z,3.78
2022-07-31T23:13:23.937Z,5.20
2022-07-31T23:15:51.081Z,3.03
2022-07-31T23:18:18.197Z,3.25
2022-07-31T23:20:45.340Z,2.83
2022-07-31T23:23:12.465Z,3.65
2022-07-31T23:25:39.629Z,3.17
2022-07-31T23:28:06.760Z,3.45
2022-07-31T23:30:33.884Z,6.22
2022-07-31T23:33:01.024Z,3.72
2022-07-31T23:35:28.217Z,3.38
2022-07-31T23:37:55.384Z,5.07
2022-07-31T23:40:22.531Z,3.85
2022-07-31T23:42:49.653Z,3.38
2022-07-31T23:45:16.833Z,3.10
2022-07-31T23:47:46.034Z,3.38
2022-07-31T23:50:13.670Z,2.83
2022-07-31T23:52:40.850Z,3.85
2022-07-31T23:55:08.211Z,4.53
2022-07-31T23:57:35.986Z,2.92
